createdAt,value
2018-07-06T00:01:12.605Z,6.50
2018-07-06T00:03:45.622Z,6.10
2018-07-06T00:06:18.585Z,6.40
2018-07-06T00:08:51.556Z,6.60
2018-07-06T00:11:24.511Z,6.60
2018-07-06T00:13:57.488Z,6.90
2018-07-06T00:16:30.400Z,6.93
2018-07-06T00:19:03.409Z,6.63
2018-07-06T00:21:36.955Z,8.03
2018-07-06T00:24:09.795Z,7.13
2018-07-06T00:26:42.721Z,7.90
2018-07-06T00:29:15.461Z,7.67
2018-07-06T00:31:48.349Z,8.10
2018-07-06T00:34:21.109Z,7.93
2018-07-06T00:36:53.969Z,8.40
2018-07-06T00:39:26.761Z,8.37
2018-07-06T00:41:59.659Z,8.93
2018-07-06T00:44:32.441Z,8.73
2018-07-06T00:47:05.317Z,9.20
2018-07-06T00:49:38.169Z,8.53
2018-07-06T00:52:11.063Z,9.90
2018-07-06T00:54:44.041Z,9.13
2018-07-06T00:57:16.952Z,9.60
2018-07-06T00:59:49.745Z,10.27
2018-07-06T01:02:22.632Z,9.10
2018-07-06T01:04:55.443Z,8.80
2018-07-06T01:07:28.362Z,9.50
2018-07-06T01:10:01.356Z,9.93
2018-07-06T01:12:39.776Z,8.97
2018-07-06T01:15:18.208Z,10.77
2018-07-06T01:17:51.169Z,10.40
2018-07-06T01:20:24.185Z,10.20
2018-07-06T01:22:56.969Z,10.57
2018-07-06T01:25:29.737Z,10.43
2018-07-06T01:28:02.530Z,11.43
2018-07-06T01:30:35.566Z,10.97
2018-07-06T01:33:08.611Z,11.33
2018-07-06T01:35:41.750Z,13.10
2018-07-06T01:38:14.646Z,12.30
2018-07-06T01:40:47.450Z,13.37
2018-07-06T01:43:20.646Z,11.80
2018-07-06T01:45:53.662Z,14.07
2018-07-06T01:48:26.567Z,13.73
2018-07-06T01:50:59.562Z,12.83
2018-07-06T01:53:32.331Z,14.33
2018-07-06T01:56:05.323Z,14.77
2018-07-06T01:58:38.086Z,12.73
2018-07-06T02:01:11.042Z,15.27
2018-07-06T02:03:44.002Z,15.23
2018-07-06T02:06:16.766Z,15.27
2018-07-06T02:08:49.555Z,16.93
2018-07-06T02:11:22.685Z,18.37
2018-07-06T02:13:55.488Z,17.97
2018-07-06T02:16:28.318Z,18.43
2018-07-06T02:19:01.333Z,16.33
2018-07-06T02:21:34.220Z,15.77
2018-07-06T02:24:07.200Z,16.03
2018-07-06T02:26:40.061Z,14.17
2018-07-06T02:29:12.820Z,13.37
2018-07-06T02:31:46.267Z,14.93
2018-07-06T02:34:19.231Z,13.73
2018-07-06T02:36:52.251Z,13.90
2018-07-06T02:39:25.094Z,13.17
2018-07-06T02:41:58.696Z,13.17
2018-07-06T02:44:31.689Z,14.47
2018-07-06T02:47:04.500Z,13.63
2018-07-06T02:49:37.422Z,13.83
2018-07-06T02:52:10.370Z,14.57
2018-07-06T02:54:43.441Z,15.40
2018-07-06T02:57:16.419Z,14.60
2018-07-06T02:59:49.297Z,17.03
2018-07-06T03:02:22.233Z,14.90
2018-07-06T03:04:55.191Z,15.03
2018-07-06T03:07:27.926Z,13.77
2018-07-06T03:10:00.720Z,15.03
2018-07-06T03:12:33.466Z,13.17
2018-07-06T03:15:06.172Z,14.30
2018-07-06T03:17:39.002Z,14.00
2018-07-06T03:20:12.008Z,13.90
2018-07-06T03:22:44.974Z,14.83
2018-07-06T03:25:18.045Z,14.37
2018-07-06T03:27:51.184Z,14.90
2018-07-06T03:30:23.907Z,14.30
2018-07-06T03:32:56.855Z,13.33
2018-07-06T03:35:29.735Z,13.27
2018-07-06T03:38:02.646Z,11.07
2018-07-06T03:40:35.427Z,12.57
2018-07-06T03:43:08.319Z,13.27
2018-07-06T03:45:41.293Z,13.40
2018-07-06T03:48:14.298Z,12.97
2018-07-06T03:50:47.137Z,11.97
2018-07-06T03:53:19.870Z,13.80
2018-07-06T03:55:52.633Z,13.70
2018-07-06T03:58:25.436Z,13.30
2018-07-06T04:00:58.273Z,14.90
2018-07-06T04:03:31.222Z,14.77
2018-07-06T04:06:04.760Z,14.23
2018-07-06T04:08:37.637Z,14.50
2018-07-06T04:11:10.654Z,14.93
2018-07-06T04:13:43.787Z,15.20
2018-07-06T04:16:16.795Z,16.43
2018-07-06T04:18:49.743Z,14.97
2018-07-06T04:21:22.697Z,15.83
2018-07-06T04:23:55.612Z,15.23
2018-07-06T04:26:28.699Z,15.97
2018-07-06T04:29:01.672Z,16.17
2018-07-06T04:31:34.668Z,16.10
2018-07-06T04:34:07.606Z,14.80
2018-07-06T04:36:40.485Z,15.30
2018-07-06T04:39:13.498Z,15.73
2018-07-06T04:41:46.413Z,14.00
2018-07-06T04:44:19.360Z,14.87
2018-07-06T04:46:52.234Z,13.90
2018-07-06T04:49:25.524Z,13.17
2018-07-06T04:51:58.457Z,13.10
2018-07-06T04:54:31.283Z,13.60
2018-07-06T04:57:04.191Z,15.37
2018-07-06T04:59:37.119Z,14.37
2018-07-06T05:02:10.015Z,14.10
2018-07-06T05:04:42.819Z,15.13
2018-07-06T05:07:15.744Z,13.50
2018-07-06T05:09:48.704Z,14.23
2018-07-06T05:12:21.405Z,13.93
2018-07-06T05:14:54.347Z,14.50
2018-07-06T05:17:27.171Z,13.03
2018-07-06T05:20:00.244Z,13.00
2018-07-06T05:22:33.058Z,13.10
2018-07-06T05:25:05.981Z,12.93
2018-07-06T05:27:38.961Z,12.40
2018-07-06T05:30:11.731Z,12.33
2018-07-06T05:32:44.693Z,11.97
2018-07-06T05:35:17.423Z,10.97
2018-07-06T05:37:50.454Z,11.20
2018-07-06T05:40:23.585Z,11.13
2018-07-06T05:42:56.614Z,10.87
2018-07-06T05:45:29.542Z,10.43
2018-07-06T05:48:02.695Z,10.93
2018-07-06T05:50:35.599Z,10.63
2018-07-06T05:53:08.485Z,10.40
2018-07-06T05:55:41.272Z,10.87
2018-07-06T05:58:14.244Z,11.23
2018-07-06T06:00:47.061Z,11.13
2018-07-06T06:03:20.048Z,11.67
2018-07-06T06:05:53.061Z,11.50
2018-07-06T06:08:19.795Z,10.50
2018-07-06T06:10:47.116Z,10.25
2018-07-06T06:13:14.449Z,9.90
2018-07-06T06:15:41.949Z,9.70
2018-07-06T06:18:09.273Z,10.50
2018-07-06T06:20:36.583Z,10.50
2018-07-06T06:23:04.443Z,9.73
2018-07-06T06:25:32.099Z,9.90
2018-07-06T06:27:59.392Z,10.03
2018-07-06T06:30:26.658Z,10.23
2018-07-06T06:32:54.628Z,9.50
2018-07-06T06:35:22.004Z,9.77
2018-07-06T06:37:49.643Z,10.13
2018-07-06T06:40:16.952Z,9.93
2018-07-06T06:42:44.401Z,9.80
2018-07-06T06:45:11.714Z,10.03
2018-07-06T06:47:39.014Z,10.10
2018-07-06T06:50:06.422Z,9.43
2018-07-06T06:52:33.755Z,9.40
2018-07-06T06:55:01.119Z,8.70
2018-07-06T06:57:28.404Z,9.50
2018-07-06T06:59:55.784Z,9.77
2018-07-06T07:02:23.089Z,9.10
2018-07-06T07:04:50.402Z,9.97
2018-07-06T07:07:17.718Z,9.57
2018-07-06T07:09:45.149Z,8.83
2018-07-06T07:12:12.508Z,8.83
2018-07-06T07:14:39.848Z,7.00
2018-07-06T07:17:08.227Z,8.27
2018-07-06T07:19:35.538Z,7.77
2018-07-06T07:22:02.808Z,7.77
2018-07-06T07:24:30.113Z,7.67
2018-07-06T07:26:58.359Z,7.70
2018-07-06T07:29:25.620Z,7.67
2018-07-06T07:31:52.897Z,8.10
2018-07-06T07:34:20.199Z,7.47
2018-07-06T07:36:47.479Z,7.43
2018-07-06T07:39:14.884Z,7.57
2018-07-06T07:41:42.215Z,8.03
2018-07-06T07:44:09.518Z,6.83
2018-07-06T07:46:36.850Z,7.73
2018-07-06T07:49:04.284Z,7.33
2018-07-06T07:51:45.949Z,7.90
2018-07-06T07:54:18.864Z,6.67
2018-07-06T07:56:46.145Z,7.40
2018-07-06T07:59:13.548Z,7.20
2018-07-06T08:01:41.300Z,7.43
2018-07-06T08:04:08.693Z,7.83
2018-07-06T08:06:36.032Z,7.27
2018-07-06T08:09:03.509Z,7.33
2018-07-06T08:11:35.444Z,7.13
2018-07-06T08:14:04.858Z,6.80
2018-07-06T08:16:25.474Z,6.40
2018-07-06T08:18:52.864Z,6.30
2018-07-06T08:21:20.276Z,5.87
2018-07-06T08:23:47.655Z,5.60
2018-07-06T08:26:14.933Z,5.60
2018-07-06T08:28:42.279Z,6.93
2018-07-06T08:31:09.523Z,6.03
2018-07-06T08:33:40.344Z,5.80
2018-07-06T08:38:20.097Z,6.27
2018-07-06T08:40:47.380Z,5.80
2018-07-06T08:43:14.680Z,6.20
2018-07-06T08:45:42.031Z,5.87
2018-07-06T08:48:09.382Z,5.57
2018-07-06T08:50:36.657Z,5.83
2018-07-06T08:53:03.954Z,5.90
2018-07-06T08:55:31.251Z,5.20
2018-07-06T08:57:59.268Z,5.50
2018-07-06T09:00:26.624Z,4.70
2018-07-06T09:02:54.120Z,4.70
2018-07-06T09:05:21.463Z,5.40
2018-07-06T09:07:48.811Z,4.50
2018-07-06T09:10:16.183Z,4.97
2018-07-06T09:12:43.573Z,4.57
2018-07-06T09:15:11.063Z,4.70
2018-07-06T09:17:38.394Z,5.00
2018-07-06T09:20:05.797Z,4.97
2018-07-06T09:22:33.045Z,5.60
2018-07-06T09:25:04.485Z,4.70
2018-07-06T09:27:31.745Z,4.80
2018-07-06T09:29:59.051Z,4.70
2018-07-06T09:32:26.444Z,4.80
2018-07-06T09:34:53.985Z,4.77
2018-07-06T09:37:21.257Z,4.70
2018-07-06T09:39:49.176Z,4.87
2018-07-06T09:42:17.112Z,5.00
2018-07-06T09:44:44.486Z,5.30
2018-07-06T09:47:11.819Z,4.90
2018-07-06T09:49:39.480Z,5.10
2018-07-06T09:52:07.203Z,4.20
2018-07-06T09:54:41.079Z,4.87
2018-07-06T09:57:08.385Z,4.30
2018-07-06T09:59:36.392Z,5.20
2018-07-06T10:02:03.767Z,5.27
2018-07-06T10:04:31.113Z,5.00
2018-07-06T10:06:58.384Z,4.80
2018-07-06T10:09:25.704Z,5.10
2018-07-06T10:11:53.008Z,4.97
2018-07-06T10:14:20.293Z,4.70
2018-07-06T10:16:47.581Z,4.83
2018-07-06T10:19:14.857Z,3.50
2018-07-06T10:21:42.136Z,4.10
2018-07-06T10:24:09.412Z,4.57
2018-07-06T10:26:36.671Z,4.77
2018-07-06T10:29:09.921Z,4.27
2018-07-06T10:31:43.244Z,4.60
2018-07-06T10:34:11.562Z,4.20
2018-07-06T10:36:39.110Z,4.20
2018-07-06T10:39:06.386Z,4.67
2018-07-06T10:41:33.710Z,4.20
2018-07-06T10:44:01.004Z,4.00
2018-07-06T10:46:28.274Z,4.00
2018-07-06T10:48:55.843Z,3.90
2018-07-06T10:51:23.408Z,4.93
2018-07-06T10:53:50.886Z,4.70
2018-07-06T10:56:18.293Z,5.20
2018-07-06T10:58:45.636Z,4.53
2018-07-06T11:01:12.933Z,4.43
2018-07-06T11:03:40.724Z,4.87
2018-07-06T11:06:07.999Z,4.17
2018-07-06T11:08:35.303Z,4.03
2018-07-06T11:11:02.665Z,3.80
2018-07-06T11:13:29.974Z,4.30
2018-07-06T11:15:58.000Z,4.17
2018-07-06T11:18:25.689Z,4.13
2018-07-06T11:20:52.985Z,3.90
2018-07-06T11:23:20.305Z,4.13
2018-07-06T11:25:47.699Z,4.33
2018-07-06T11:28:15.025Z,4.37
2018-07-06T11:30:42.359Z,4.20
2018-07-06T11:33:09.687Z,3.60
2018-07-06T11:35:37.062Z,4.60
2018-07-06T11:38:04.545Z,4.03
2018-07-06T11:40:31.796Z,3.87
2018-07-06T11:42:59.394Z,4.20
2018-07-06T11:45:26.711Z,4.10
2018-07-06T11:47:54.006Z,3.93
2018-07-06T11:50:21.514Z,3.37
2018-07-06T11:52:49.029Z,4.17
2018-07-06T11:55:16.424Z,3.67
2018-07-06T11:57:44.312Z,4.10
2018-07-06T12:00:11.648Z,4.07
2018-07-06T12:02:39.880Z,3.63
2018-07-06T12:05:07.561Z,3.10
2018-07-06T12:07:34.904Z,3.17
2018-07-06T12:10:02.181Z,3.13
2018-07-06T12:12:29.557Z,2.97
2018-07-06T12:14:56.828Z,3.67
2018-07-06T18:31:24.461Z,3.83
2018-07-06T18:33:51.918Z,3.77
2018-07-06T18:36:19.243Z,4.70
2018-07-06T18:38:47.370Z,11.30
2018-07-06T18:41:14.880Z,29.23
2018-07-06T18:43:42.291Z,3.70
2018-07-06T18:46:09.732Z,3.10
2018-07-06T18:48:37.156Z,3.30
2018-07-06T18:51:04.562Z,3.63
2018-07-06T18:53:32.024Z,4.23
2018-07-06T18:55:59.438Z,3.00
2018-07-06T18:58:26.855Z,3.17
2018-07-06T19:00:54.627Z,2.73
2018-07-06T19:03:22.016Z,2.60
2018-07-06T19:05:49.359Z,3.27
2018-07-06T19:08:16.765Z,2.87
2018-07-06T19:10:45.132Z,2.83
2018-07-06T19:13:12.572Z,3.23
2018-07-06T19:15:39.919Z,2.93
2018-07-06T19:18:07.408Z,2.50
2018-07-06T19:20:34.817Z,2.90
2018-07-06T19:23:02.239Z,3.10
2018-07-06T19:25:29.678Z,2.87
2018-07-06T19:27:57.114Z,3.07
2018-07-06T19:30:24.487Z,2.90
2018-07-06T19:32:51.818Z,3.10
2018-07-06T19:35:19.238Z,3.20
2018-07-06T19:37:46.716Z,3.53
2018-07-06T19:40:14.083Z,3.37
2018-07-06T19:42:41.634Z,3.03
2018-07-06T19:45:09.061Z,3.47
2018-07-06T19:47:36.482Z,5.13
2018-07-06T19:50:03.848Z,3.50
2018-07-06T19:52:31.256Z,3.43
2018-07-06T19:54:58.667Z,3.40
2018-07-06T19:57:26.079Z,3.73
2018-07-06T19:59:53.604Z,3.07
2018-07-06T20:02:21.099Z,3.13
2018-07-06T20:04:49.042Z,3.60
2018-07-06T20:07:16.467Z,3.43
2018-07-06T20:09:43.912Z,3.43
2018-07-06T20:12:11.320Z,2.77
2018-07-06T20:14:38.714Z,3.47
2018-07-06T20:17:06.133Z,2.80
2018-07-06T20:19:33.701Z,3.10
2018-07-06T20:22:01.484Z,3.60
2018-07-06T20:24:29.631Z,3.57
2018-07-06T20:26:57.178Z,4.17
2018-07-06T20:29:24.546Z,3.43
2018-07-06T20:31:52.004Z,3.37
2018-07-06T20:34:19.515Z,3.33
2018-07-06T20:36:46.996Z,3.03
2018-07-06T20:39:14.400Z,3.23
2018-07-06T20:41:41.809Z,3.50
2018-07-06T20:44:09.158Z,3.13
2018-07-06T20:46:36.606Z,3.30
2018-07-06T20:49:04.030Z,3.07
2018-07-06T20:51:31.388Z,3.67
2018-07-06T20:53:58.820Z,3.60
2018-07-06T20:56:26.213Z,3.50
2018-07-06T20:58:53.671Z,4.00
2018-07-06T21:01:21.078Z,3.67
2018-07-06T21:03:48.497Z,3.73
2018-07-06T21:06:15.915Z,3.40
2018-07-06T21:08:43.425Z,4.10
2018-07-06T21:11:10.760Z,3.70
2018-07-06T21:13:38.156Z,3.90
2018-07-06T21:16:05.903Z,4.37
2018-07-06T21:18:33.402Z,5.97
2018-07-06T21:21:00.863Z,4.10
2018-07-06T21:23:32.922Z,3.90
2018-07-06T21:26:00.337Z,4.80
2018-07-06T21:28:32.096Z,4.27
2018-07-06T21:30:59.590Z,4.87
2018-07-06T21:33:27.021Z,4.10
2018-07-06T21:35:54.435Z,4.50
2018-07-06T21:38:21.798Z,4.70
2018-07-06T21:40:49.545Z,4.40
2018-07-06T21:43:16.876Z,3.97
2018-07-06T21:45:44.301Z,5.43
2018-07-06T21:48:11.704Z,5.77
2018-07-06T21:50:39.632Z,5.50
2018-07-06T21:53:07.020Z,4.53
2018-07-06T21:55:34.427Z,5.77
2018-07-06T21:58:01.785Z,11.87
2018-07-06T22:00:32.143Z,6.50
2018-07-06T22:02:59.825Z,4.60
2018-07-06T22:05:27.279Z,10.07
2018-07-06T22:07:54.643Z,6.20
2018-07-06T22:10:21.989Z,5.03
2018-07-06T22:12:49.445Z,4.93
2018-07-06T22:15:16.822Z,4.23
2018-07-06T22:17:44.148Z,4.83
2018-07-06T22:20:11.642Z,4.73
2018-07-06T22:22:39.006Z,5.13
2018-07-06T22:25:06.341Z,5.00
2018-07-06T22:27:33.649Z,5.17
2018-07-06T22:30:00.959Z,5.37
2018-07-06T22:32:28.330Z,4.90
2018-07-06T22:34:55.647Z,7.80
2018-07-06T22:37:23.661Z,3.90
2018-07-06T22:39:51.145Z,4.57
2018-07-06T22:42:18.661Z,3.47
2018-07-06T22:44:46.607Z,4.17
2018-07-06T22:47:13.910Z,3.30
2018-07-06T22:49:41.223Z,3.50
2018-07-06T22:52:08.675Z,3.57
2018-07-06T22:54:36.210Z,3.80
2018-07-06T22:57:03.666Z,2.90
2018-07-06T22:59:31.096Z,3.43
2018-07-06T23:01:58.432Z,3.10
2018-07-06T23:04:25.761Z,3.30
2018-07-06T23:06:53.132Z,2.87
2018-07-06T23:09:20.477Z,2.70
2018-07-06T23:11:47.844Z,3.23
2018-07-06T23:14:15.164Z,2.70
2018-07-06T23:16:43.178Z,2.73
2018-07-06T23:19:11.123Z,2.20
2018-07-06T23:21:38.489Z,2.20
2018-07-06T23:24:05.880Z,2.20
2018-07-06T23:26:33.202Z,1.90
2018-07-06T23:29:00.621Z,1.93
2018-07-06T23:31:28.068Z,1.90
2018-07-06T23:33:55.416Z,2.70
2018-07-06T23:36:22.874Z,2.63
2018-07-06T23:38:50.202Z,3.07
2018-07-06T23:41:18.306Z,2.80
2018-07-06T23:43:45.674Z,3.23
2018-07-06T23:46:12.966Z,2.20
2018-07-06T23:48:40.360Z,2.20
2018-07-06T23:51:07.695Z,2.30
2018-07-06T23:53:35.196Z,2.60
2018-07-06T23:56:02.664Z,2.03
2018-07-06T23:58:30.119Z,2.47
